Detmold, Texas
Current Conditions -  °F | °C
As of 8:58 AM on Monday 24 Nov 2014 (Local Time) from KGRK Reporting Station
Broken Clouds Broken Clouds  
Wind Chill: 52°   Ceiling: 24000
Heat Index: 52°   Visibility: 10mi
Dew Point: 31°   Wind: 15mph
Humidity: 45%   Direction: 330°NNW
Pressure: 30.07"   Gusts: NA
Location:  30.5951°N, 97.1399°W
Report Text: KGRK 241458Z AUTO 33013KT 10SM BKN240 11/00 A3007 RMK AO2 SLP181 T01131003 52031
Loading
Personal Weather Stations






























Interactive Weather Map New forecast layout! Learn more

10-Day Weather Forecast

Advertisements
Track Severe Weather on mobile